createdAt,value
2022-12-05T00:01:51.953Z,12.93
2022-12-05T00:04:20.181Z,13.07
2022-12-05T00:06:48.302Z,13.93
2022-12-05T00:09:17.866Z,14.10
2022-12-05T00:11:47.115Z,14.03
2022-12-05T00:14:15.632Z,13.20
2022-12-05T00:16:45.079Z,13.67
2022-12-05T00:19:15.672Z,12.77
2022-12-05T00:21:44.520Z,13.10
2022-12-05T00:24:16.010Z,13.27
2022-12-05T00:26:45.841Z,13.37
2022-12-05T00:29:13.895Z,12.87
2022-12-05T00:31:42.312Z,12.30
2022-12-05T00:34:10.807Z,12.03
2022-12-05T00:36:39.125Z,11.87
2022-12-05T00:39:09.898Z,11.07
2022-12-05T00:41:38.585Z,11.90
2022-12-05T00:44:08.615Z,11.43
2022-12-05T00:46:38.040Z,11.20
2022-12-05T00:49:08.070Z,11.10
2022-12-05T00:51:39.475Z,11.40
2022-12-05T00:54:10.093Z,10.27
2022-12-05T00:56:38.661Z,10.73
2022-12-05T00:59:08.971Z,11.40
2022-12-05T01:01:38.770Z,10.77
2022-12-05T01:04:09.783Z,11.13
2022-12-05T01:06:37.900Z,10.33
2022-12-05T01:09:06.796Z,9.90
2022-12-05T01:11:40.732Z,11.13
2022-12-05T01:14:11.169Z,10.57
2022-12-05T01:16:41.445Z,10.80
2022-12-05T01:19:14.091Z,10.33
2022-12-05T01:21:42.663Z,11.17
2022-12-05T01:24:11.784Z,10.83
2022-12-05T01:26:41.231Z,11.57
2022-12-05T01:29:11.063Z,11.10
2022-12-05T01:31:40.338Z,11.70
2022-12-05T01:34:13.012Z,12.10
2022-12-05T01:36:41.437Z,12.80
2022-12-05T01:39:11.176Z,12.47
2022-12-05T01:41:42.615Z,13.33
2022-12-05T01:44:40.421Z,13.37
2022-12-05T01:47:10.222Z,13.80
2022-12-05T01:49:41.186Z,13.50
2022-12-05T01:52:14.684Z,14.83
2022-12-05T01:54:45.387Z,13.80
2022-12-05T01:57:15.369Z,12.50
2022-12-05T01:59:48.491Z,12.13
2022-12-05T02:02:18.423Z,12.63
2022-12-05T02:04:56.825Z,12.30
2022-12-05T02:07:24.988Z,11.53
2022-12-05T02:09:53.198Z,11.37
2022-12-05T02:12:22.799Z,12.43
2022-12-05T02:15:07.393Z,12.23
2022-12-05T02:17:47.588Z,11.93
2022-12-05T02:20:30.416Z,11.87
2022-12-05T02:23:28.982Z,12.20
2022-12-05T02:26:24.916Z,12.23
2022-12-05T02:29:38.618Z,12.23
2022-12-05T02:32:14.087Z,13.20
2022-12-05T02:34:49.171Z,11.90
2022-12-05T02:37:24.254Z,12.47
2022-12-05T02:39:58.088Z,12.77
2022-12-05T02:42:33.172Z,12.83
2022-12-05T02:45:04.179Z,12.53
2022-12-05T02:47:38.150Z,13.60
2022-12-05T02:50:08.750Z,13.20
2022-12-05T02:52:37.713Z,14.07
2022-12-05T02:55:08.799Z,12.20
2022-12-05T02:57:39.106Z,13.03
2022-12-05T03:00:08.619Z,14.33
2022-12-05T03:02:41.318Z,13.33
2022-12-05T03:05:20.667Z,13.50
2022-12-05T03:07:51.846Z,13.43
2022-12-05T03:10:27.640Z,13.40
2022-12-05T03:13:00.202Z,13.57
2022-12-05T03:15:33.810Z,12.93
2022-12-05T03:18:08.344Z,13.33
2022-12-05T03:20:42.874Z,12.43
2022-12-05T03:23:16.801Z,12.97
2022-12-05T03:25:52.734Z,12.57
2022-12-05T03:28:26.190Z,14.43
2022-12-05T03:30:57.903Z,14.10
2022-12-05T03:33:32.099Z,13.37
2022-12-05T03:36:04.056Z,13.20
2022-12-05T03:38:38.302Z,13.03
2022-12-05T03:41:11.026Z,13.03
2022-12-05T03:43:49.030Z,12.37
2022-12-05T03:46:24.312Z,13.07
2022-12-05T03:49:00.351Z,13.43
2022-12-05T03:51:33.712Z,14.10
2022-12-05T03:54:07.539Z,12.90
2022-12-05T03:56:40.895Z,12.67
2022-12-05T03:59:15.473Z,13.50
2022-12-05T04:01:45.100Z,13.13
2022-12-05T04:04:19.379Z,12.53
2022-12-05T04:06:50.944Z,12.40
2022-12-05T04:09:24.976Z,13.37
2022-12-05T04:11:58.978Z,13.30
2022-12-05T04:14:34.118Z,12.37
2022-12-05T04:17:04.954Z,13.03
2022-12-05T04:19:58.120Z,12.90
2022-12-05T04:22:28.047Z,12.27
2022-12-05T04:25:16.084Z,13.33
2022-12-05T04:27:52.405Z,12.80
2022-12-05T04:30:23.349Z,13.43
2022-12-05T04:33:06.646Z,13.27
2022-12-05T04:35:41.177Z,13.70
2022-12-05T04:38:14.633Z,14.13
2022-12-05T04:40:50.759Z,13.53
2022-12-05T04:43:20.894Z,13.30
2022-12-05T04:45:50.621Z,13.70
2022-12-05T04:48:20.960Z,14.00
2022-12-05T04:50:53.189Z,13.83
2022-12-05T04:53:24.064Z,14.73
2022-12-05T04:55:55.657Z,14.30
2022-12-05T04:58:26.896Z,14.13
2022-12-05T05:01:00.561Z,15.23
2022-12-05T05:03:33.827Z,13.80
2022-12-05T05:06:04.478Z,14.40
2022-12-05T05:08:32.634Z,14.43
2022-12-05T05:11:10.865Z,15.03
2022-12-05T05:13:39.012Z,14.33
2022-12-05T05:16:08.211Z,14.10
2022-12-05T05:18:36.416Z,15.87
2022-12-05T05:21:06.165Z,15.30
2022-12-05T05:23:34.229Z,14.40
2022-12-05T05:26:02.408Z,14.50
2022-12-05T05:28:30.472Z,15.27
2022-12-05T05:31:03.646Z,14.60
2022-12-05T05:33:31.865Z,15.03
2022-12-05T05:36:05.746Z,15.30
2022-12-05T05:38:38.197Z,14.90
2022-12-05T05:41:07.342Z,14.70
2022-12-05T05:43:35.712Z,16.13
2022-12-05T05:46:05.668Z,15.40
2022-12-05T05:48:33.889Z,17.60
2022-12-05T05:51:02.537Z,18.03
2022-12-05T05:53:32.518Z,16.57
2022-12-05T05:56:04.087Z,17.60
2022-12-05T05:58:32.188Z,18.83
2022-12-05T06:01:04.752Z,18.27
2022-12-05T06:03:33.037Z,18.13
2022-12-05T06:06:03.954Z,17.33
2022-12-05T06:08:34.540Z,19.13
2022-12-05T06:11:06.207Z,18.77
2022-12-05T06:13:34.327Z,18.57
2022-12-05T06:16:03.202Z,24.33
2022-12-05T06:18:31.281Z,21.37
2022-12-05T06:20:59.831Z,18.20
2022-12-05T06:23:28.807Z,18.27
2022-12-05T06:25:58.486Z,18.17
2022-12-05T06:28:27.821Z,17.43
2022-12-05T06:30:55.901Z,16.50
2022-12-05T06:33:24.057Z,18.80
2022-12-05T06:36:03.341Z,17.73
2022-12-05T06:38:31.567Z,17.40
2022-12-05T06:41:01.137Z,16.57
2022-12-05T06:43:29.255Z,16.50
2022-12-05T06:45:57.512Z,17.73
2022-12-05T06:48:25.621Z,17.73
2022-12-05T06:50:54.669Z,19.93
2022-12-05T06:53:22.806Z,19.83
2022-12-05T06:55:57.441Z,19.87
2022-12-05T06:58:27.253Z,20.03
2022-12-05T07:01:13.625Z,20.23
2022-12-05T07:03:44.090Z,21.47
2022-12-05T07:06:12.446Z,19.97
2022-12-05T07:08:41.582Z,20.47
2022-12-05T07:11:10.104Z,20.17
2022-12-05T07:13:39.590Z,20.00
2022-12-05T07:16:08.627Z,21.10
2022-12-05T07:18:37.465Z,21.57
2022-12-05T07:21:12.179Z,21.37
2022-12-05T07:23:41.665Z,19.83
2022-12-05T07:26:12.613Z,22.40
2022-12-05T07:28:42.272Z,21.80
2022-12-05T07:31:12.957Z,22.47
2022-12-05T07:33:41.691Z,22.50
2022-12-05T07:36:12.194Z,21.77
2022-12-05T07:38:41.090Z,21.60
2022-12-05T07:41:13.495Z,21.17
2022-12-05T07:43:43.716Z,21.37
2022-12-05T07:46:12.622Z,21.23
2022-12-05T07:48:41.456Z,20.23
2022-12-05T07:51:11.372Z,20.80
2022-12-05T07:53:41.647Z,22.60
2022-12-05T07:56:12.233Z,20.23
2022-12-05T07:58:40.709Z,21.00
2022-12-05T08:01:12.401Z,19.00
2022-12-05T08:03:40.735Z,20.10
2022-12-05T08:06:11.328Z,19.90
2022-12-05T08:08:39.803Z,19.70
2022-12-05T08:11:10.147Z,20.63
2022-12-05T08:13:38.788Z,23.03
2022-12-05T08:16:09.569Z,21.60
2022-12-05T08:18:39.515Z,23.50
2022-12-05T08:21:11.162Z,30.90
2022-12-05T08:23:40.668Z,23.60
2022-12-05T08:26:11.218Z,25.20
2022-12-05T08:28:40.573Z,27.27
2022-12-05T08:31:10.258Z,26.10
2022-12-05T08:33:40.707Z,24.43
2022-12-05T08:36:13.575Z,25.40
2022-12-05T08:38:42.004Z,25.07
2022-12-05T08:41:12.077Z,24.37
2022-12-05T08:43:40.758Z,25.17
2022-12-05T08:46:09.903Z,25.10
2022-12-05T08:48:39.880Z,27.40
2022-12-05T08:51:10.330Z,27.50
2022-12-05T08:53:44.118Z,25.10
2022-12-05T08:56:13.501Z,24.97
2022-12-05T08:58:42.078Z,26.40
2022-12-05T09:01:12.121Z,26.27
2022-12-05T09:03:47.557Z,22.97
2022-12-05T09:06:18.174Z,24.83
2022-12-05T09:08:47.358Z,23.17
2022-12-05T09:11:17.513Z,23.13
2022-12-05T09:13:45.718Z,24.27
2022-12-05T09:16:15.964Z,20.83
2022-12-05T09:18:46.207Z,22.60
2022-12-05T09:21:16.241Z,20.13
2022-12-05T09:23:44.794Z,21.60
2022-12-05T09:26:14.983Z,22.77
2022-12-05T09:28:44.684Z,21.43
2022-12-05T09:31:15.280Z,22.00
2022-12-05T09:33:45.029Z,21.00
2022-12-05T09:36:15.500Z,22.47
2022-12-05T09:38:43.726Z,19.30
2022-12-05T09:41:45.876Z,21.13
2022-12-05T09:44:21.836Z,20.20
2022-12-05T09:46:54.493Z,19.40
2022-12-05T09:49:25.659Z,18.13
2022-12-05T09:51:56.739Z,18.70
2022-12-05T09:54:26.179Z,18.50
2022-12-05T09:56:55.248Z,17.60
2022-12-05T09:59:23.509Z,17.80
2022-12-05T10:01:59.135Z,17.70
2022-12-05T10:05:00.157Z,18.57
2022-12-05T10:07:37.604Z,15.13
2022-12-05T10:10:22.714Z,16.73
2022-12-05T10:13:04.335Z,18.33
2022-12-05T10:15:36.859Z,20.37
2022-12-05T10:18:18.689Z,20.40
2022-12-05T10:20:52.976Z,20.50
2022-12-05T10:23:49.323Z,20.60
2022-12-05T10:26:15.851Z,21.27
2022-12-05T10:28:53.513Z,23.13
2022-12-05T10:31:27.062Z,23.97
2022-12-05T10:34:03.707Z,28.93
2022-12-05T10:36:33.907Z,24.17
2022-12-05T10:39:04.777Z,25.87
2022-12-05T10:41:36.620Z,27.23
2022-12-05T10:44:06.259Z,28.50
2022-12-05T10:46:34.360Z,30.33
2022-12-05T10:49:02.785Z,32.37
2022-12-05T10:51:37.014Z,29.17
2022-12-05T10:54:18.337Z,29.20
2022-12-05T10:56:48.415Z,29.93
2022-12-05T10:59:19.596Z,29.70
2022-12-05T11:01:51.187Z,28.67
2022-12-05T11:04:28.797Z,28.57
2022-12-05T11:07:02.149Z,26.93
2022-12-05T11:09:34.399Z,22.93
2022-12-05T11:12:07.226Z,24.33
2022-12-05T11:14:36.508Z,22.47
2022-12-05T11:17:06.917Z,23.27
2022-12-05T11:19:37.269Z,20.90
2022-12-05T11:22:08.240Z,20.40
2022-12-05T11:24:39.128Z,21.00
2022-12-05T11:27:23.336Z,23.33
2022-12-05T11:30:03.286Z,26.20
2022-12-05T11:32:33.006Z,26.33
2022-12-05T11:35:19.760Z,27.63
2022-12-05T11:37:54.375Z,25.40
2022-12-05T11:40:37.683Z,25.87
2022-12-05T11:43:26.618Z,25.73
2022-12-05T11:46:05.830Z,23.27
2022-12-05T11:48:47.643Z,20.77
2022-12-05T11:51:30.527Z,23.73
2022-12-05T11:55:03.335Z,31.20
2022-12-05T11:57:34.034Z,26.47
2022-12-05T12:00:22.421Z,24.50
2022-12-05T12:03:22.237Z,24.80
2022-12-05T12:06:03.028Z,20.77
2022-12-05T12:08:34.308Z,20.30
2022-12-05T12:11:15.150Z,19.03
2022-12-05T12:13:59.672Z,17.03
2022-12-05T12:16:38.662Z,19.57
2022-12-05T12:19:32.289Z,20.07
2022-12-05T12:22:15.262Z,19.83
2022-12-05T12:25:02.753Z,23.93
2022-12-05T12:27:45.465Z,21.30
2022-12-05T12:30:21.382Z,21.57
2022-12-05T12:33:04.755Z,22.17
2022-12-05T12:35:33.827Z,21.33
2022-12-05T12:38:23.643Z,21.90
2022-12-05T12:40:56.689Z,20.77
2022-12-05T12:43:53.645Z,20.87
2022-12-05T12:46:35.644Z,20.40
2022-12-05T12:49:24.786Z,17.03
2022-12-05T12:51:55.521Z,18.80
2022-12-05T12:57:44.199Z,16.60
2022-12-05T13:00:22.249Z,16.50
2022-12-05T13:02:57.748Z,14.80
2022-12-05T13:05:34.323Z,17.47
2022-12-05T13:08:07.976Z,18.43
2022-12-05T13:10:40.810Z,12.47
2022-12-05T13:13:12.359Z,11.80
2022-12-05T13:15:47.241Z,12.83
2022-12-05T13:18:19.866Z,12.57
2022-12-05T13:20:50.525Z,12.77
2022-12-05T13:23:22.517Z,13.73
2022-12-05T13:25:52.799Z,15.33
2022-12-05T13:28:29.588Z,15.40
2022-12-05T13:31:01.596Z,15.40
2022-12-05T13:33:37.440Z,16.23
2022-12-05T13:36:29.961Z,15.23
2022-12-05T13:39:21.126Z,15.87
2022-12-05T13:42:09.638Z,15.27
2022-12-05T13:44:42.388Z,13.33
2022-12-05T13:47:25.990Z,13.50
2022-12-05T13:50:02.730Z,14.40
2022-12-05T13:52:33.328Z,14.27
2022-12-05T13:55:13.157Z,13.13
2022-12-05T13:57:53.293Z,14.53
2022-12-05T14:00:24.457Z,13.63
2022-12-05T14:02:55.059Z,14.00
2022-12-05T14:05:53.480Z,14.30
2022-12-05T14:09:03.289Z,15.40
2022-12-05T14:11:31.567Z,15.53
2022-12-05T14:14:04.682Z,14.33
2022-12-05T14:16:46.221Z,14.97
2022-12-05T14:19:59.793Z,15.93
2022-12-05T14:23:11.201Z,17.17
2022-12-05T14:25:58.110Z,17.27
2022-12-05T14:28:44.001Z,17.10
2022-12-05T14:31:29.587Z,19.10
2022-12-05T14:34:20.888Z,17.83
2022-12-05T14:36:59.156Z,19.07
2022-12-05T14:39:39.448Z,23.87
2022-12-05T14:42:22.637Z,18.13
2022-12-05T14:44:52.095Z,18.93
2022-12-05T14:47:23.720Z,18.80
2022-12-05T14:50:04.561Z,19.60
2022-12-05T14:52:34.543Z,22.17
2022-12-05T14:55:19.631Z,23.97
2022-12-05T14:57:51.086Z,18.73
2022-12-05T15:00:22.987Z,19.90
2022-12-05T15:02:55.604Z,21.53
2022-12-05T15:05:28.057Z,21.87
2022-12-05T15:07:57.538Z,20.30
2022-12-05T15:10:33.761Z,19.67
2022-12-05T15:13:06.095Z,18.13
2022-12-05T15:15:39.104Z,18.77
2022-12-05T15:18:19.964Z,20.27
2022-12-05T15:20:55.727Z,26.40
2022-12-05T15:23:40.999Z,24.43
2022-12-05T15:26:49.290Z,28.83
2022-12-05T15:29:10.405Z,27.87
2022-12-05T15:31:45.574Z,29.97
2022-12-05T15:34:18.662Z,30.83
2022-12-05T15:36:51.937Z,31.70
2022-12-05T15:39:28.764Z,33.77
2022-12-05T15:41:58.963Z,31.90
2022-12-05T15:44:37.402Z,35.60
2022-12-05T15:47:06.362Z,32.50
2022-12-05T15:49:34.710Z,33.73
2022-12-05T15:52:15.596Z,48.23
2022-12-05T15:54:45.294Z,43.20
2022-12-05T15:57:20.906Z,36.67
2022-12-05T15:59:54.434Z,30.63
2022-12-05T16:02:28.483Z,31.67
2022-12-05T16:04:59.574Z,30.93
2022-12-05T16:07:31.885Z,31.77
2022-12-05T16:10:02.459Z,30.77
2022-12-05T16:12:39.403Z,28.93
2022-12-05T16:15:14.645Z,28.63
2022-12-05T16:17:47.269Z,31.00
2022-12-05T16:20:31.040Z,28.37
2022-12-05T16:23:02.955Z,28.37
2022-12-05T16:25:33.774Z,29.10
2022-12-05T16:28:17.625Z,31.93
2022-12-05T16:30:57.252Z,43.10
2022-12-05T16:33:25.644Z,33.10
2022-12-05T16:35:54.214Z,32.93
2022-12-05T16:38:25.938Z,27.77
2022-12-05T16:40:58.342Z,28.17
2022-12-05T16:43:45.590Z,29.33
2022-12-05T16:46:46.206Z,30.57
2022-12-05T16:49:34.485Z,30.00
2022-12-05T16:52:05.550Z,32.17
2022-12-05T16:54:33.580Z,34.40
2022-12-05T16:57:05.624Z,32.93
2022-12-05T16:59:37.486Z,33.90
2022-12-05T17:02:11.879Z,33.30
2022-12-05T17:04:40.082Z,33.63
2022-12-05T17:07:08.259Z,34.03
2022-12-05T17:09:36.748Z,32.83
2022-12-05T17:12:08.878Z,39.70
2022-12-05T17:14:38.509Z,36.80
2022-12-05T17:17:14.093Z,39.43
2022-12-05T17:19:42.331Z,37.03
2022-12-05T17:22:10.599Z,41.60
2022-12-05T17:24:38.766Z,37.03
2022-12-05T17:27:07.438Z,38.40
2022-12-05T17:29:36.079Z,38.93
2022-12-05T17:32:06.086Z,40.33
2022-12-05T17:34:34.271Z,39.50
2022-12-05T17:37:02.705Z,39.07
2022-12-05T17:39:30.890Z,48.43
2022-12-05T17:41:59.062Z,59.67
2022-12-05T17:44:27.439Z,53.27
2022-12-05T17:46:55.549Z,49.43
2022-12-05T17:49:25.293Z,49.13
2022-12-05T17:54:42.453Z,45.43
2022-12-05T17:57:10.596Z,45.30
2022-12-05T17:59:39.279Z,43.87
2022-12-05T18:02:07.898Z,46.53
2022-12-05T18:04:37.342Z,38.60
2022-12-05T18:07:05.604Z,40.60
2022-12-05T18:09:34.160Z,57.10
2022-12-05T18:12:02.378Z,59.00
2022-12-05T18:14:30.938Z,57.63
2022-12-05T18:16:59.185Z,50.07
2022-12-05T18:19:27.669Z,52.40
2022-12-05T18:21:57.157Z,47.67
2022-12-05T18:24:25.439Z,47.47
2022-12-05T18:26:55.958Z,48.87
2022-12-05T18:29:24.495Z,40.07
2022-12-05T18:31:52.753Z,38.50
2022-12-05T18:34:20.938Z,42.30
2022-12-05T18:36:49.312Z,44.17
2022-12-05T18:39:18.898Z,38.90
2022-12-05T18:41:47.239Z,37.93
2022-12-05T18:44:15.510Z,38.50
2022-12-05T18:46:43.822Z,40.57
2022-12-05T18:49:13.283Z,40.03
2022-12-05T18:51:41.628Z,39.17
2022-12-05T18:54:09.914Z,38.97
2022-12-05T18:56:40.319Z,37.77
2022-12-05T18:59:12.169Z,40.40
2022-12-05T19:01:41.890Z,43.73
2022-12-05T19:04:12.572Z,40.27
2022-12-05T19:06:43.224Z,40.83
2022-12-05T19:09:15.449Z,41.00
2022-12-05T19:11:47.941Z,40.73
2022-12-05T19:14:18.969Z,39.53
2022-12-05T19:16:51.710Z,39.40
2022-12-05T19:19:24.830Z,34.80
2022-12-05T19:21:53.669Z,39.63
2022-12-05T19:24:21.812Z,37.63
2022-12-05T19:26:51.345Z,39.47
2022-12-05T19:29:19.510Z,38.80
2022-12-05T19:31:47.663Z,39.13
2022-12-05T19:34:16.094Z,41.27
2022-12-05T19:36:46.198Z,41.23
2022-12-05T19:39:17.509Z,39.17
2022-12-05T19:41:46.802Z,39.10
2022-12-05T19:44:16.757Z,40.93
2022-12-05T19:46:45.651Z,40.80
2022-12-05T19:49:15.811Z,42.77
2022-12-05T19:51:44.652Z,47.93
2022-12-05T19:54:14.612Z,43.93
2022-12-05T19:56:43.102Z,45.63
2022-12-05T19:59:16.935Z,42.53
2022-12-05T20:01:45.283Z,44.73
2022-12-05T20:04:15.565Z,45.83
2022-12-05T20:06:45.614Z,44.40
2022-12-05T20:09:15.440Z,44.30
2022-12-05T20:11:50.935Z,45.10
2022-12-05T20:14:25.347Z,44.47
2022-12-05T20:16:54.187Z,43.33
2022-12-05T20:19:22.641Z,45.03
2022-12-05T20:21:50.765Z,44.80
2022-12-05T20:24:18.962Z,43.83
2022-12-05T20:26:47.120Z,42.80
2022-12-05T20:29:15.648Z,43.30
2022-12-05T20:31:45.215Z,44.40
2022-12-05T20:34:15.276Z,42.97
2022-12-05T20:36:44.664Z,42.07
2022-12-05T20:39:15.793Z,42.77
2022-12-05T20:41:44.427Z,41.73
2022-12-05T20:44:15.803Z,41.73
2022-12-05T20:46:45.457Z,40.13
2022-12-05T20:49:14.161Z,40.97
2022-12-05T20:51:44.281Z,41.90
2022-12-05T20:54:16.744Z,42.67
2022-12-05T20:56:46.137Z,40.87
2022-12-05T20:59:15.130Z,40.40
2022-12-05T21:01:43.682Z,39.50
2022-12-05T21:04:14.042Z,40.97
2022-12-05T21:06:43.861Z,41.67
2022-12-05T21:09:16.024Z,41.63
2022-12-05T21:11:44.554Z,41.07
2022-12-05T21:14:13.312Z,40.00
2022-12-05T21:16:42.243Z,40.53
2022-12-05T21:19:10.434Z,41.67
2022-12-05T21:21:40.103Z,42.23
2022-12-05T21:24:10.699Z,42.30
2022-12-05T21:26:39.937Z,40.53
2022-12-05T21:29:10.713Z,39.40
2022-12-05T21:31:40.839Z,39.63
2022-12-05T21:34:14.056Z,41.10
2022-12-05T21:36:44.720Z,37.87
2022-12-05T21:39:13.295Z,39.43
2022-12-05T21:41:41.702Z,37.63
2022-12-05T21:44:10.011Z,38.77
2022-12-05T21:46:38.257Z,36.30
2022-12-05T21:49:06.558Z,35.83
2022-12-05T21:51:34.718Z,37.00
2022-12-05T21:54:04.793Z,36.60
2022-12-05T21:56:33.082Z,38.10
2022-12-05T21:59:01.271Z,37.03
2022-12-05T22:01:29.629Z,36.33
2022-12-05T22:04:00.890Z,36.33
2022-12-05T22:06:30.113Z,35.80
2022-12-05T22:08:58.336Z,38.07
2022-12-05T22:11:28.214Z,35.50
2022-12-05T22:13:56.332Z,35.67
2022-12-05T22:16:30.850Z,36.50
2022-12-05T22:19:01.340Z,35.10
2022-12-05T22:21:29.871Z,35.93
2022-12-05T22:23:58.159Z,38.07
2022-12-05T22:26:28.827Z,38.33
2022-12-05T22:28:57.736Z,41.47
2022-12-05T22:31:26.009Z,41.47
2022-12-05T22:33:54.242Z,41.83
2022-12-05T22:36:24.216Z,43.40
2022-12-05T22:38:52.432Z,43.47
2022-12-05T22:41:23.272Z,40.23
2022-12-05T22:43:56.674Z,40.80
2022-12-05T22:46:25.481Z,39.00
2022-12-05T22:48:54.524Z,38.43
2022-12-05T22:51:23.811Z,37.17
2022-12-05T22:53:52.609Z,35.90
2022-12-05T22:56:21.767Z,36.07
2022-12-05T22:58:50.231Z,37.43
2022-12-05T23:01:21.869Z,34.70
2022-12-05T23:03:51.424Z,36.93
2022-12-05T23:06:19.836Z,36.00
2022-12-05T23:08:49.409Z,36.70
2022-12-05T23:11:18.780Z,36.83
2022-12-05T23:13:47.365Z,37.13
2022-12-05T23:16:20.766Z,38.37
2022-12-05T23:18:51.080Z,36.53
2022-12-05T23:21:20.829Z,35.70
2022-12-05T23:23:50.092Z,36.03
2022-12-05T23:26:19.528Z,35.43
2022-12-05T23:28:48.054Z,36.50
2022-12-05T23:31:17.063Z,36.17
2022-12-05T23:33:47.580Z,35.73
2022-12-05T23:36:19.139Z,37.57
2022-12-05T23:38:47.516Z,35.43
2022-12-05T23:41:17.948Z,35.87
2022-12-05T23:43:46.815Z,36.00
2022-12-05T23:46:16.128Z,35.53
2022-12-05T23:48:44.430Z,36.30
2022-12-05T23:51:14.476Z,35.03
2022-12-05T23:53:45.126Z,36.23
2022-12-05T23:56:14.904Z,35.23
2022-12-05T23:58:44.072Z,34.97
